DTW weather

Detroit Metropolitan Wayne County Airport
Detroit, Michigan, United States

Public forecast

Using degrees Fahrenheit for public forecast. Weather courtesy of forecast.io.

Current aviation weather report (METAR) for Detroit Metropolitan Wayne County Airport

Retrieved 2020/01/19 08:53 UTC (49 minutes ago):

KDTW 190853Z 26016G30KT 7SM -SN OVC018 M06/M09 A2988 RMK AO2 PK WND 26030/0848 SLP125 P0000 60000 T10611094 51026

Aviation forecast (TAF) for Detroit Metropolitan Wayne County Airport

Retrieved 2020/01/19 06:33 UTC (3 hours ago):

TAF KDTW 190530Z 1906/2012 26020G33KT P6SM -SHSN OVC025 FM190800 27020G30KT P6SM BKN015 OVC025 FM191300 27017G25KT P6SM BKN025 OVC035 FM191800 29015G23KT 5SM -SHSN OVC025 TEMPO 1919/1921 3/4SM -SHSN OVC009 FM192100 34012G20KT P6SM SCT025 BKN035 FM200000 33008KT P6SM BKN035 FM200300 32007KT P6SM SKC